Tiempo atmosférico en la estación meteorológica de Fuerteventura Aeropuerto, Las Palmas (25 m.)

Fecha
DESCASC
Temp. máxima en grados centígrados (hora)
DESCASC
Temp. mínima en grados centígrados (hora)
DESCASC
Temp. media en grados centígrados
DESCASC
Racha de viento máxima en m/sg (hora)
DESCASC
Velocidad máxima media en intervalos de 10 minutos(hora)
DESCASC
Precipitaciones diarias en mm
DESCASC
Precipitaciones de 00:00 a 06:00 en mm
DESCASC
Precipitaciones de 06:00 a 12:00 en mm
DESCASC
Precipitaciones de 12:00 a 18:00 en mm
DESCASC
Precipitaciones de 18:00 a 24:00 en mm
DESCASC
23-11-2017 24.9 (17:40) 14.3 (06:50) 19.6 11.67 (14:00) 8.06 (13:50) 0 0 0 0 0
22-11-2017 24.3 (16:00) 15.4 (06:50) 19.8 8.33 (11:40) 6.67 (13:40) 0 0 0 0 0
21-11-2017 29.1 (11:00) 14.7 (07:30) 21.9 -- (--) -- (--) -- 0 -- -- 0
20-11-2017 23.6 (14:10) 17.5 (23:30) 20.6 8.33 (00:50) 6.39 (00:50) 0 0 0 0 0
19-11-2017 23.3 (13:00) 19.9 (00:00) 21.6 8.89 (00:10) 7.22 (20:30) 0 0 0 0 0
18-11-2017 23.3 (14:00) 20.1 (00:00) 21.7 9.17 (03:30) 7.22 (03:10) 0 0 0 0 0
17-11-2017 23.6 (13:50) 17.9 (00:00) 20.8 8.33 (20:20) 6.39 (21:50) 0 0 0 0 0
16-11-2017 23.5 (12:50) 18.2 (00:00) 20.9 8.89 (08:30) 6.67 (20:20) 0 0 0 0 0
15-11-2017 23.9 (13:30) 19 (00:00) 21.4 10.28 (11:10) 7.5 (11:20) 0 0 0 0 0
14-11-2017 24.3 (12:20) 19.6 (00:00) 21.9 11.67 (07:40) 8.89 (09:20) 0 0 0 0 0
13-11-2017 23.7 (13:50) 18.6 (00:00) 21.2 10.28 (19:40) 7.78 (19:40) 0 0 0 0 0
12-11-2017 -- (--) -- (--) -- -- (--) -- (--) -- -- -- -- 0
11-11-2017 24.3 (16:00) 20.4 (00:00) 22.3 9.72 (00:20) 7.78 (00:30) 0 0 0 0 0
10-11-2017 24.7 (12:50) 20.8 (00:00) 22.8 12.78 (08:50) 10.28 (07:50) 0 0 0 0 0
09-11-2017 25.2 (13:30) 20.8 (00:00) 23 10.83 (22:30) 8.61 (23:00) 0 0 0 0 0
08-11-2017 25.8 (13:00) 22 (00:00) 23.9 11.67 (07:40) 9.72 (07:40) 0 0 0 0 0
07-11-2017 24.4 (11:30) 21 (00:00) 22.7 13.89 (12:50) 10.83 (13:00) 0 0 0 0 0
06-11-2017 25.1 (12:10) 20.6 (00:00) 22.9 13.89 (01:20) 11.11 (01:50) 0 0 0 0 0
05-11-2017 25.5 (13:00) 20.5 (00:00) 23 14.44 (18:00) 11.39 (18:00) 0 0 0 0 0
04-11-2017 25.4 (14:10) 19.8 (00:00) 22.6 11.67 (19:20) 8.89 (18:00) 0 0 0 0 0
03-11-2017 24.9 (14:20) 18.7 (00:00) 21.8 9.17 (18:20) 4.72 (17:50) 0 0 0 0 0
02-11-2017 24.3 (14:10) 19.3 (02:50) 21.8 8.89 (18:40) 5 (19:40) 0 0 0 0 0
01-11-2017 26.6 (13:40) 20.4 (00:00) 23.5 9.17 (22:00) 6.94 (22:00) 0 0 0 0 0
31-10-2017 24.9 (13:40) 20.8 (00:00) 22.8 7.78 (02:10) 6.11 (20:40) 0 0 0 0 0
30-10-2017 24.9 (13:50) 20.5 (00:00) 22.7 7.78 (02:40) 5.56 (03:20) 0 0 0 0 0
29-10-2017 24.9 (13:50) 20.4 (00:00) 22.6 7.78 (18:10) 6.39 (18:10) 0 0 0 0 0
28-10-2017 26.7 (14:20) 21.4 (00:00) 24.1 7.78 (18:40) 6.39 (18:40) 0 0 0 0 0
27-10-2017 27.6 (15:50) 23.3 (00:00) 25.4 8.89 (02:50) 6.67 (02:50) 0 0 0 0 0
26-10-2017 28.8 (14:50) 20 (00:00) 24.4 8.33 (08:30) 5.56 (23:50) 0 0 0 0 0
25-10-2017 28.2 (15:50) 21.1 (00:00) 24.7 7.22 (08:00) 4.72 (03:20) 0 0 0 0 0

Gráficas

Temp. máximas Temp. mínimas Temp. medias Precipitaciones Rachas de viento máximas Velocidades máximas media en intervalos de 10 minutos

Datos horarios

Fecha y hora oficial Temperatura (ºC) Velocidad del viento (km/h) Dirección del viento Racha (km/h) Dirección de racha Precipitación (mm) Presión (hPa) Tendencia (hPa) Humedad (%)
2017-11-23 23:00:00 17.9 12 Noroeste 17 Noroeste 0 1013.5 0.7 73
2017-11-23 22:00:00 18.5 6 Noroeste 21 Oeste 0 1013.3 1 71
2017-11-23 21:00:00 20.1 6 Norte 11 Sudeste 0 1013.2 1.6 73
2017-11-23 20:00:00 21.5 6 Sudeste 15 Sudoeste 0 1012.8 1.2 76
2017-11-23 19:00:00 22.4 6 Sur 33 Oeste 0 1012.3 0.8 49
2017-11-23 18:00:00 24.3 12 Sudoeste 35 Oeste 0 1011.6 0 39
2017-11-23 17:00:00 23.4 15 Sur 28 Sur 0 1011.6 -0.4 49
2017-11-23 16:00:00 23.2 18 Sudeste 33 Sur 0 1011.5 -1 52
2017-11-23 15:00:00 23.1 25 Sudeste 41 Sur 0 1011.6 -1.2 51
2017-11-23 14:00:00 23.5 28 Sur 42 Sur 0 1012 -1.2 45
2017-11-23 13:00:00 23.6 23 Sur 32 Sur 0 1012.5 -0.5 50
2017-11-23 12:00:00 23 19 Sudeste 30 Sudeste 0 1012.8 0.4 52
2017-11-23 11:00:00 22.9 19 Sudeste 26 Sudeste 0 1013.2 1.6 54
2017-11-23 10:00:00 22.1 14 Sur 21 Sur 0 1013 2.1 55
2017-11-23 09:00:00 19.4 6 Sudoeste 18 Oeste 0 1012.4 1.8 62
2017-11-23 08:00:00 15.8 6 Oeste 18 Oeste 0 1011.6 1.3 66
2017-11-23 07:00:00 14.5 8 Oeste 13 Oeste 0 1010.9 0.6 60
2017-11-23 06:00:00 14.6 10 Oeste 13 Oeste 0 1010.6 0 50
2017-11-23 05:00:00 15.5 9 Oeste 17 Noroeste 0 1010.3 -0.2 44
2017-11-23 04:00:00 16 12 Noroeste 18 Noroeste 0 1010.3 -0.7 37
2017-11-23 03:00:00 15.8 12 Noroeste 15 Noroeste 0 1010.6 -0.8 35
2017-11-23 02:00:00 16.1 9 Noroeste 17 Noroeste 0 1010.5 -1.3 37
2017-11-23 01:00:00 15.9 11 Oeste 17 Noroeste 0 1011 -0.6 59
2017-11-23 00:00:00 16.3 13 Oeste 15 Oeste 0 1011.4 0.4 64
2017-11-22 23:00:00 16.8 13 Oeste 15 Oeste 0 1011.8 1 62
2017-11-22 22:00:00 17.9 6 Noroeste 11 Noroeste 0 1011.6 0.9 50
2017-11-22 21:00:00 19.1 12 Norte 18 Noroeste 0 1011 0.7 41
2017-11-22 20:00:00 19.3 5 Oeste 18 Oeste 0 1010.8 0.9 28
2017-11-22 19:00:00 20.8 0 Calma 13 Oeste 0 1010.7 0.4 33
2017-11-22 18:00:00 22.6 0 Calma 17 Sudeste 0 1010.3 0 38
2017-11-22 17:00:00 24.1 15 Sudeste 22 Sur 0 1009.9 -0.9 35
2017-11-22 16:00:00 24.2 17 Sur 28 Sur 0 1010.3 -1.3 33
2017-11-22 15:00:00 23.6 19 Sudeste 28 Sudeste 0 1010.3 -1.7 47
2017-11-22 14:00:00 23.5 22 Sudeste 30 Sudeste 0 1010.8 -1.8 47
2017-11-22 13:00:00 23.5 22 Sudeste 28 Sudeste 0 1011.6 -1.2 47
2017-11-22 12:00:00 23 20 Sur 30 Sudeste 0 1012 -0.2 45
2017-11-22 11:00:00 22.8 19 Sudeste 24 Sudeste 0 1012.6 0.9 49
2017-11-22 10:00:00 22.5 14 Sudeste 21 Sudeste 0 1012.8 1.5 48
2017-11-22 09:00:00 20.6 5 Sudoeste 22 Oeste 0 1012.2 0.9 49
2017-11-22 08:00:00 16.6 5 Sudoeste 17 Oeste 0 1011.7 0.4 63
2017-11-22 07:00:00 15.7 2 Sudoeste 8 Oeste 0 1011.3 -0.5 68
2017-11-22 06:00:00 16.5 3 Sudoeste 8 Oeste 0 1011.3 -0.7 69
2017-11-22 05:00:00 16.3 2 Oeste 5 Sudoeste 0 1011.3 -1.1 77
2017-11-22 04:00:00 17.4 0 Calma 8 Oeste 0 1011.8 -1.1 76
2017-11-22 03:00:00 17.3 0 Calma 5 Oeste 0 1012 -0.9 78
2017-11-22 02:00:00 17.4 3 Oeste 8 Noroeste 0 1012.4 -0.9 76
2017-11-22 01:00:00 18.3 4 Noroeste 13 Noroeste 0 1012.9 -0.6 72
2017-11-22 00:00:00 18.7 5 Noroeste 11 Noroeste 0 1012.9 -0.3 72
2017-11-21 23:00:00 18.9 5 Noroeste 11 Norte 0 1013.3 -0.1 69
2017-11-21 22:00:00 19 5 Noroeste -- -- 0 1013.5 0.3 65
2017-11-21 21:00:00 19.6 10 Noroeste 17 Oeste 0 1013.2 0.3 63
2017-11-21 20:00:00 20.3 5 Norte 11 Nordeste 0 1013.4 0.4 64
2017-11-21 19:00:00 21.1 9 Nordeste 15 Nordeste 0 1013.2 0.5 68
2017-11-21 18:00:00 22 7 Nordeste 11 Nordeste 0 1012.9 -0.1 64
2017-11-21 17:00:00 22.8 4 Este 13 Sudeste 0 1013 -0.5 53
2017-11-21 16:00:00 23.4 10 Sudeste 22 Sur 0 1012.7 -1.8 48
2017-11-21 15:00:00 24.2 17 Sur 30 Sur 0 1013 -2.6 35
2017-11-21 14:00:00 24.4 16 Sur 30 Sur 0 1013.5 -- 35
2017-11-21 13:00:00 24.4 19 Sur 30 Sur -- 1014.5 -2 38
2017-11-21 12:00:00 23 17 Sur 24 Sur 0 1015.6 -0.5 43
2017-11-21 11:00:00 24.6 17 Sur 24 Sur -- -- -- 35
2017-11-21 10:00:00 22.8 14 Sur 21 Sur 0 1016.5 1.5 42
2017-11-21 09:00:00 21.3 11 Sudoeste 24 Sudoeste 0 1016.1 1.6 45
2017-11-21 08:00:00 16.7 11 Sudoeste 24 Oeste 0 1015.6 1.4 64
2017-11-21 07:00:00 15.9 8 Sudoeste -- -- 0 1015 0.9 69
2017-11-21 06:00:00 16.6 5 Sudoeste -- -- 0 1014.5 0 69
2017-11-21 05:00:00 -- -- -- -- -- 0 1014.2 -0.4 --
2017-11-21 04:00:00 16.4 7 Oeste 13 Noroeste 0 1014.1 -0.6 76
2017-11-21 03:00:00 16.8 9 Noroeste 13 Noroeste 0 1014.5 -0.6 70
2017-11-21 02:00:00 17.9 6 Norte 17 Noroeste 0 1014.6 -0.2 70
2017-11-21 01:00:00 17.8 14 Noroeste 18 Noroeste 0 1014.7 -0.4 72
2017-11-21 00:00:00 18.2 10 Noroeste 17 Norte 0 1015.1 0.1 71
2017-11-20 23:00:00 18 12 Noroeste 17 Norte 0 1014.8 0.2 78
2017-11-20 22:00:00 19.4 11 Noroeste 18 Noroeste 0 1015.1 1 85
2017-11-20 21:00:00 20.4 8 Noroeste 15 Noroeste 0 1015 1.3 84
2017-11-20 20:00:00 20.7 9 Norte 17 Noroeste 0 1014.6 1.1 81
2017-11-20 19:00:00 21.2 15 Nordeste 22 Nordeste 0 1014.1 0.7 81
2017-11-20 18:00:00 21.7 14 Norte 21 Nordeste 0 1013.7 0.3 78
2017-11-20 17:00:00 22.4 14 Nordeste 18 Nordeste 0 1013.5 -0.3 78
2017-11-20 16:00:00 22.6 6 Nordeste 13 Nordeste 0 1013.4 -1.1 77
2017-11-20 15:00:00 22.8 10 Nordeste 15 Este 0 1013.4 -1.8 75
2017-11-20 14:00:00 23.4 5 Este 15 Nordeste 0 1013.8 -2 73
2017-11-20 13:00:00 23.3 7 Nordeste 17 Este 0 1014.5 -0.9 72
2017-11-20 12:00:00 23 6 Este 17 Este 0 1015.2 0.4 74
2017-11-20 11:00:00 22.2 13 Este 18 Este 0 1015.8 1.5 77
2017-11-20 10:00:00 22.5 14 Nordeste 21 Nordeste 0 1015.4 1.6 77
2017-11-20 09:00:00 21.1 14 Nordeste 18 Nordeste 0 1014.8 1.4 80
2017-11-20 08:00:00 20.7 13 Nordeste 22 Este 0 1014.3 1 84
2017-11-20 07:00:00 20.8 16 Este 26 Nordeste 0 1013.8 0.7 83
2017-11-20 06:00:00 20.6 16 Nordeste 26 Este 0 1013.4 0.4 82
2017-11-20 05:00:00 20.9 18 Este 26 Este 0 1013.3 0 83
2017-11-20 04:00:00 20.8 20 Nordeste 28 Nordeste 0 1013.1 -0.4 82
2017-11-20 03:00:00 20.7 21 Nordeste 28 Nordeste 0 1013 -0.8 81
2017-11-20 02:00:00 20.9 22 Nordeste 28 Nordeste 0 1013.3 -0.8 80
2017-11-20 01:00:00 20.6 22 Nordeste 30 Nordeste 0 1013.5 -0.5 81
2017-11-20 00:00:00 20.8 21 Nordeste 28 Nordeste 0 1013.8 0.2 80
2017-11-19 23:00:00 20.8 22 Nordeste 30 Nordeste 0 1014.1 0.7 79
2017-11-19 22:00:00 20.8 22 Nordeste 32 Nordeste 0 1014 1 78
2017-11-19 21:00:00 20.9 23 Nordeste 32 Nordeste 0 1013.6 0.9 77
2017-11-19 20:00:00 20.9 24 Nordeste 32 Nordeste 0 1013.4 0.8 77
2017-11-19 19:00:00 21 23 Nordeste 28 Nordeste 0 1013 0.6 76
2017-11-19 18:00:00 21.1 21 Nordeste 26 Nordeste 0 1012.7 0.6 74
2017-11-19 17:00:00 21.6 17 Nordeste 24 Nordeste 0 1012.6 0 72
2017-11-19 16:00:00 22.2 18 Nordeste 24 Nordeste 0 1012.4 -0.7 69
2017-11-19 15:00:00 22.8 18 Nordeste 26 Nordeste 0 1012.1 -1.6 65
2017-11-19 14:00:00 22.9 17 Nordeste 22 Este 0 1012.6 -1.5 64
2017-11-19 13:00:00 23.1 17 Este 24 Este 0 1013.1 -0.8 63
2017-11-19 12:00:00 22.5 14 Este 22 Este 0 1013.7 0 66
2017-11-19 11:00:00 22.2 17 Este 24 Este 0 1014.1 0.9 67
2017-11-19 10:00:00 22.4 17 Nordeste 24 Nordeste 0 1013.9 1.4 66
2017-11-19 09:00:00 21.4 16 Nordeste 26 Nordeste 0 1013.7 1.5 71
2017-11-19 08:00:00 20.4 17 Nordeste 26 Nordeste 0 1013.2 1.1 74
2017-11-19 07:00:00 20.4 22 Nordeste 28 Nordeste 0 1012.5 0.5 74
2017-11-19 06:00:00 20.1 21 Nordeste 28 Nordeste 0 1012.2 0 74
2017-11-19 05:00:00 20.1 22 Nordeste 32 Nordeste 0 1012.1 -0.4 73
2017-11-19 04:00:00 20.4 21 Nordeste 32 Nordeste 0 1012 -0.8 72
2017-11-19 03:00:00 20.6 20 Nordeste 28 Nordeste 0 1012.2 -1 77
2017-11-19 02:00:00 20.8 21 Este 28 Este 0 1012.5 -1 75
2017-11-19 01:00:00 20.6 20 Este 32 Nordeste 0 1012.8 -0.7 72
2017-11-19 00:00:00 20.7 24 Nordeste 33 Este 0 1013.2 0 73
2017-11-18 23:00:00 20.5 25 Nordeste 33 Nordeste 0 1013.5 0.6 74
2017-11-18 22:00:00 20.5 24 Nordeste 33 Nordeste 0 1013.5 0.7 74
2017-11-18 21:00:00 20.6 22 Nordeste 30 Nordeste 0 1013.2 0.4 75
2017-11-18 20:00:00 20.6 21 Nordeste 30 Nordeste 0 1012.9 0.4 74
2017-11-18 19:00:00 20.7 22 Nordeste 28 Nordeste 0 1012.8 0.5 73
2017-11-18 18:00:00 21.1 19 Nordeste 24 Nordeste 0 1012.8 0.5 71
2017-11-18 17:00:00 21.7 17 Nordeste 26 Nordeste 0 1012.5 -0.2 70
2017-11-18 16:00:00 22.5 15 Nordeste 22 Nordeste 0 1012.3 -1.3 65
2017-11-18 15:00:00 22.9 13 Nordeste 21 Nordeste 0 1012.3 -2 65
2017-11-18 14:00:00 23 12 Nordeste 18 Nordeste 0 1012.7 -2.1 64
2017-11-18 13:00:00 22.9 12 Nordeste 18 Este 0 1013.6 -1 63
2017-11-18 12:00:00 22.6 12 Nordeste 21 Nordeste 0 1014.3 0 64
2017-11-18 11:00:00 22.3 12 Nordeste 22 Este 0 1014.8 1.2 63
2017-11-18 10:00:00 21.8 14 Este 22 Este 0 1014.6 1.5 67
2017-11-18 09:00:00 21.4 13 Nordeste 22 Este 0 1014.3 1.5 69
2017-11-18 08:00:00 20.4 15 Nordeste 22 Este 0 1013.6 1.1 74
2017-11-18 07:00:00 20.2 14 Este 21 Este 0 1013.1 0.3 72
2017-11-18 06:00:00 20.3 15 Este 28 Nordeste 0 1012.8 -0.1 72
2017-11-18 05:00:00 20.2 21 Nordeste 33 Nordeste 0 1012.5 -1 72
2017-11-18 04:00:00 20.3 22 Nordeste 33 Nordeste 0 1012.8 -1.3 73
2017-11-18 03:00:00 20.3 25 Nordeste 30 Nordeste 0 1012.9 -1.7 72
2017-11-18 02:00:00 20.3 21 Nordeste 28 Nordeste 0 1013.5 -1.2 71
2017-11-18 01:00:00 20.5 20 Nordeste 26 Nordeste 0 1014.1 -0.5 73
2017-11-18 00:00:00 20.7 20 Nordeste 26 Nordeste 0 1014.6 0.1 73
2017-11-17 23:00:00 20.5 18 Nordeste 28 Nordeste 0 1014.7 0.5 73
2017-11-17 22:00:00 20.5 22 Nordeste 30 Nordeste 0 1014.6 0.7 73
2017-11-17 21:00:00 20.7 22 Nordeste 30 Nordeste 0 1014.5 1 73
2017-11-17 20:00:00 20.9 20 Nordeste 26 Nordeste 0 1014.2 1 71
2017-11-17 19:00:00 20.9 17 Nordeste 22 Nordeste 0 1013.9 0.8 71
2017-11-17 18:00:00 21.1 15 Nordeste 21 Nordeste 0 1013.5 0.3 70
2017-11-17 17:00:00 21.9 17 Nordeste 26 Nordeste 0 1013.2 -0.7 63
2017-11-17 16:00:00 22.5 17 Nordeste 24 Nordeste 0 1013.1 -1.6 59
2017-11-17 15:00:00 22.7 15 Nordeste 24 Nordeste 0 1013.2 -2.1 59
2017-11-17 14:00:00 23.1 17 Nordeste 26 Nordeste 0 1013.9 -1.8 58
2017-11-17 13:00:00 22.9 17 Nordeste 26 Nordeste 0 1014.7 -0.8 58
2017-11-17 12:00:00 22.6 19 Nordeste 26 Nordeste 0 1015.3 0.2 59
2017-11-17 11:00:00 22.7 18 Nordeste 28 Nordeste 0 1015.7 1.1 60
2017-11-17 10:00:00 22.4 18 Nordeste 24 Nordeste 0 1015.5 1.5 65
2017-11-17 09:00:00 21.3 13 Norte 24 Noroeste 0 1015.1 1.3 69
2017-11-17 08:00:00 20.1 18 Nordeste 26 Nordeste 0 1014.6 0.9 74
2017-11-17 07:00:00 19.6 18 Nordeste 26 Nordeste 0 1014 0.5 75
2017-11-17 06:00:00 18.1 13 Norte 21 Noroeste 0 1013.8 -0.2 79
2017-11-17 05:00:00 18.3 13 Norte 21 Norte 0 1013.7 -0.7 79
2017-11-17 04:00:00 18 11 Norte 17 Norte 0 1013.5 -1.5 79
2017-11-17 03:00:00 18.5 12 Noroeste 15 Noroeste 0 1014 -1.5 78
2017-11-17 02:00:00 18.7 13 Noroeste 17 Noroeste 0 1014.4 -0.9 77
2017-11-17 01:00:00 19.2 12 Norte 22 Nordeste 0 1015 -0.7 75
2017-11-17 00:00:00 19.9 17 Nordeste 22 Norte 0 1015.5 0.1 72
2017-11-16 23:00:00 20.1 18 Nordeste 26 Norte 0 1015.3 0.4 72
2017-11-16 22:00:00 20.1 19 Nordeste 30 Nordeste 0 1015.7 1.2 72
2017-11-16 21:00:00 20.5 21 Nordeste 30 Nordeste 0 1015.4 1.4 71
2017-11-16 20:00:00 20.9 21 Nordeste 28 Nordeste 0 1014.9 1.2 70
2017-11-16 19:00:00 21.1 18 Nordeste 26 Nordeste 0 1014.5 1.2 68
2017-11-16 18:00:00 21.3 16 Nordeste 22 Nordeste 0 1014 0.5 69
2017-11-16 17:00:00 21.8 15 Nordeste 24 Nordeste 0 1013.7 -0.4 69
2017-11-16 16:00:00 22.8 17 Nordeste 22 Nordeste 0 1013.3 -1.4 63
2017-11-16 15:00:00 23.1 16 Este 22 Este 0 1013.5 -2 63
2017-11-16 14:00:00 23.1 12 Este 21 Este 0 1014.1 -1.8 63
2017-11-16 13:00:00 23.1 15 Nordeste 22 Este 0 1014.7 -1.2 62
2017-11-16 12:00:00 22.8 17 Nordeste 26 Nordeste 0 1015.5 0 64
2017-11-16 11:00:00 22.4 14 Nordeste 26 Nordeste 0 1015.9 0.9 65
2017-11-16 10:00:00 21.2 19 Norte 28 Norte 0 1015.9 1.9 61
2017-11-16 09:00:00 20.2 15 Noroeste 32 Noroeste 0 1015.5 2 61
2017-11-16 08:00:00 18.6 15 Noroeste 28 Noroeste 0 1015 1.8 66
2017-11-16 07:00:00 18.5 13 Noroeste 18 Noroeste 0 1014 0.6 67
2017-11-16 06:00:00 19 14 Noroeste 18 Noroeste 0 1013.5 -0.1 65
2017-11-16 05:00:00 18.9 14 Noroeste 18 Noroeste 0 1013.2 -0.5 63
2017-11-16 04:00:00 18.4 15 Noroeste 21 Noroeste 0 1013.4 -0.7 64
2017-11-16 03:00:00 18.2 16 Noroeste 21 Noroeste 0 1013.6 -1 63
2017-11-16 02:00:00 18.3 15 Noroeste 18 Noroeste 0 1013.7 -1.1 63
2017-11-16 01:00:00 18.6 14 Noroeste 18 Norte 0 1014.1 -1 62
2017-11-16 00:00:00 19 14 Noroeste 18 Noroeste 0 1014.6 -0.5 60
2017-11-15 23:00:00 19.6 11 Noroeste 18 Norte 0 1014.8 0.5 59
2017-11-15 22:00:00 20.5 14 Norte 22 Norte 0 1015.1 1.3 57
2017-11-15 21:00:00 20.7 16 Norte 26 Norte 0 1015.1 1.8 56
2017-11-15 20:00:00 21 22 Norte 26 Norte 0 1014.3 1.4 57
2017-11-15 19:00:00 21.1 17 Nordeste 22 Nordeste 0 1013.8 1.3 60
2017-11-15 18:00:00 21.3 17 Nordeste 26 Nordeste 0 1013.3 0.9 60
2017-11-15 17:00:00 21.7 19 Nordeste 26 Nordeste 0 1012.9 -0.1 60
2017-11-15 16:00:00 22.5 20 Nordeste 32 Nordeste 0 1012.5 -1 57
2017-11-15 15:00:00 23.1 22 Nordeste 32 Nordeste 0 1012.4 -2 57
2017-11-15 14:00:00 23.5 21 Nordeste 32 Nordeste 0 1013 -2.2 55
2017-11-15 13:00:00 23.2 21 Nordeste 28 Nordeste 0 1013.5 -1.7 50
2017-11-15 12:00:00 22.9 17 Nordeste 37 Nordeste 0 1014.4 -0.1 49
2017-11-15 11:00:00 22.2 24 Nordeste 32 Nordeste 0 1015.2 0.9 53
2017-11-15 10:00:00 21.7 20 Nordeste 32 Nordeste 0 1015.2 1.5 56
2017-11-15 09:00:00 20.8 21 Nordeste 35 Norte 0 1014.5 1.5 56
2017-11-15 08:00:00 20.1 22 Norte 30 Norte 0 1014.3 1.7 55
2017-11-15 07:00:00 20.1 15 Norte 22 Norte 0 1013.7 1 57
2017-11-15 06:00:00 20.1 19 Norte 26 Norte 0 1013 0.2 57
2017-11-15 05:00:00 20.1 16 Norte 28 Norte 0 1012.6 -0.5 59
2017-11-15 04:00:00 20.1 18 Norte 33 Norte 0 1012.7 -0.9 58
2017-11-15 03:00:00 20.5 19 Norte 24 Norte 0 1012.8 -1.3 57
2017-11-15 02:00:00 20.8 19 Norte 26 Norte 0 1013.1 -1.3 63
2017-11-15 01:00:00 20.9 21 Norte 28 Norte 0 1013.6 -0.9 67
2017-11-15 00:00:00 21.2 17 Nordeste 32 Nordeste 0 1014.1 -0.2 59
2017-11-14 23:00:00 21 22 Norte 35 Norte 0 1014.4 0.6 58
2017-11-14 22:00:00 21.1 25 Nordeste 32 Nordeste 0 1014.5 1.1 61
2017-11-14 21:00:00 20.5 17 Norte 30 Norte 0 1014.3 1.2 61
2017-11-14 20:00:00 20.5 19 Norte 37 Noroeste 0 1013.8 1.1 61
2017-11-14 19:00:00 21.3 23 Norte 33 Norte 0 1013.4 1 61
2017-11-14 18:00:00 21.3 24 Nordeste 35 Nordeste 0 1013.1 0.4 66
2017-11-14 17:00:00 22.2 26 Nordeste 33 Nordeste 0 1012.7 -0.4 61
2017-11-14 16:00:00 23 25 Nordeste 35 Nordeste 0 1012.4 -1.5 60
2017-11-14 15:00:00 23.4 23 Nordeste 33 Nordeste 0 1012.7 -2.3 57
2017-11-14 14:00:00 23.6 25 Nordeste 37 Nordeste 0 1013.1 -2.3 56
2017-11-14 13:00:00 24 27 Nordeste 35 Nordeste 0 1013.9 -1.6 57
2017-11-14 12:00:00 23.3 24 Nordeste 32 Nordeste 0 1015 -0.4 61
2017-11-14 11:00:00 22.9 23 Nordeste 37 Nordeste 0 1015.4 0.3 56
2017-11-14 10:00:00 22.5 28 Nordeste 41 Nordeste 0 1015.5 0.7 56
2017-11-14 09:00:00 21.3 31 Norte 42 Nordeste 0 1015.4 1.1 60
2017-11-14 08:00:00 20.8 29 Nordeste 42 Nordeste 0 1015.1 1.1 63
2017-11-14 07:00:00 20.2 21 Norte 33 Norte 0 1014.8 0.7 64
2017-11-14 06:00:00 20.1 23 Norte 39 Norte 0 1014.3 -0.2 64
2017-11-14 05:00:00 20.4 19 Norte 33 Norte 0 1014 -1 64
2017-11-14 04:00:00 20.3 24 Norte 37 Norte 0 1014.1 -1.2 63
2017-11-14 03:00:00 20.2 23 Norte 32 Norte 0 1014.5 -1.3 66
2017-11-14 02:00:00 19.9 16 Norte 24 Norte 0 1015 -1 66
2017-11-14 01:00:00 19.7 14 Norte 21 Norte 0 1015.3 -0.7 69
2017-11-14 00:00:00 20.2 12 Norte 22 Noroeste 0 1015.8 0 69
2017-11-13 23:00:00 20.3 15 Noroeste 22 Norte 0 1016 0.5 68
2017-11-13 22:00:00 20.7 16 Norte 24 Norte 0 1016 0.8 69
2017-11-13 21:00:00 20.5 19 Norte 33 Norte 0 1015.8 0.6 69
2017-11-13 20:00:00 20.6 28 Norte 37 Norte 0 1015.5 0.6 69
2017-11-13 19:00:00 21.2 23 Norte 35 Noroeste 0 1015.2 0.4 71
2017-11-13 18:00:00 21.6 22 Nordeste 32 Nordeste 0 1015.2 0.3 73
2017-11-13 17:00:00 22.1 24 Nordeste 30 Nordeste 0 1014.9 -0.6 70
2017-11-13 16:00:00 22.7 21 Nordeste 28 Nordeste 0 1014.8 -1.4 67
2017-11-13 15:00:00 23.3 19 Nordeste 26 Nordeste 0 1014.9 -2.3 65
2017-11-13 14:00:00 23.5 19 Nordeste 28 Nordeste 0 1015.5 -2.2 63
2017-11-13 13:00:00 23.6 21 Nordeste 30 Nordeste 0 1016.2 -1.8 64
2017-11-13 12:00:00 23.3 21 Nordeste 32 Norte 0 1017.2 -0.5 64
2017-11-13 11:00:00 23 22 Nordeste 30 Nordeste 0 1017.7 0.5 66
2017-11-13 10:00:00 22.1 20 Nordeste 28 Nordeste 0 1018 1.4 70
2017-11-13 09:00:00 21.6 21 Nordeste 30 Nordeste 0 1017.7 1.5 73
2017-11-13 08:00:00 20.3 17 Norte 33 Nordeste 0 1017.2 1 79
2017-11-13 07:00:00 19.9 21 Nordeste 32 Nordeste 0 1016.6 0.1 81
2017-11-13 06:00:00 18.8 17 Norte 24 Norte 0 1016.2 -0.5 84
2017-11-13 05:00:00 18.8 15 Norte 22 Norte 0 1016.2 -1.1 83
2017-11-13 04:00:00 18.7 15 Norte 21 Norte 0 1016.5 -1.1 83
2017-11-13 03:00:00 18.9 14 Norte 18 Norte 0 1016.7 -1.2 81
2017-11-13 02:00:00 19.7 9 Norte 22 Nordeste 0 1017.3 -0.9 80
2017-11-13 01:00:00 20.4 15 Nordeste 21 Nordeste 0 1017.6 -0.4 81
2017-11-13 00:00:00 20.7 15 Nordeste 21 Nordeste 0 1017.9 0 81
2017-11-12 23:00:00 20.9 18 Nordeste 22 Nordeste 0 1018.2 0.8 80
2017-11-12 22:00:00 21.2 16 Nordeste 24 Nordeste 0 1018 1.1 80
2017-11-12 21:00:00 21.7 18 Nordeste 22 Nordeste 0 1017.9 1.4 80
2017-11-12 20:00:00 22.3 19 Nordeste 24 Nordeste 0 1017.4 1.5 78
2017-11-12 19:00:00 22.3 16 Nordeste 21 Nordeste 0 1016.9 0.9 69
2017-11-12 18:00:00 22.8 15 Nordeste 21 Norte 0 1016.5 -- 52
2017-11-12 17:00:00 23.8 15 Nordeste 21 Nordeste 0 1015.9 -- 57
2017-11-12 16:00:00 24.4 12 Nordeste -- -- -- 1016 -- 48
2017-11-12 15:00:00 -- -- -- -- -- -- -- -- --
2017-11-12 14:00:00 -- -- -- -- -- -- -- -- --
2017-11-12 13:00:00 -- -- -- -- -- -- -- -- --
2017-11-12 12:00:00 -- -- -- -- -- -- -- -- --
2017-11-12 11:00:00 -- -- -- -- -- -- -- -- --
2017-11-12 10:00:00 -- -- -- -- -- -- -- -- --
2017-11-12 09:00:00 -- -- -- -- -- -- -- -- --
2017-11-12 08:00:00 -- -- -- -- -- -- -- -- --
2017-11-12 07:00:00 -- -- -- -- -- -- -- -- --
2017-11-12 06:00:00 -- -- -- -- -- -- -- -- --
2017-11-12 05:00:00 -- -- -- -- -- -- -- -- --
2017-11-12 04:00:00 -- -- -- -- -- -- -- -- --
2017-11-12 03:00:00 -- -- -- -- -- -- -- -- --
2017-11-12 02:00:00 20.8 8 Norte 21 Nordeste 0 1017.8 -0.8 81
2017-11-12 01:00:00 21.2 15 Nordeste 21 Nordeste 0 1018.2 -0.4 79
2017-11-12 00:00:00 21.5 15 Nordeste 18 Nordeste 0 1018.7 0.5 78
2017-11-11 23:00:00 21.7 15 Nordeste 18 Nordeste 0 1018.6 1.1 74
2017-11-11 22:00:00 21.8 15 Nordeste 18 Nordeste 0 1018.6 1.7 70
2017-11-11 21:00:00 21.3 11 Norte 17 Norte 0 1018.2 1.7 64
2017-11-11 20:00:00 22 11 Norte 15 Norte 0 1017.5 1.1 60
2017-11-11 19:00:00 22.3 13 Norte 17 Nordeste 0 1016.9 0.8 57
2017-11-11 18:00:00 22.9 14 Nordeste 18 Nordeste 0 1016.5 0 53
2017-11-11 17:00:00 23.6 14 Nordeste 18 Nordeste 0 1016.4 -0.7 52
2017-11-11 16:00:00 24.2 15 Nordeste 18 Nordeste 0 1016.1 -1.6 57
2017-11-11 15:00:00 24 12 Nordeste 21 Nordeste 0 1016.5 -1.7 62
2017-11-11 14:00:00 23.8 14 Nordeste 18 Nordeste 0 1017.1 -1.4 68
2017-11-11 13:00:00 23.7 13 Nordeste 21 Nordeste 0 1017.7 -0.9 70
2017-11-11 12:00:00 23.4 14 Nordeste 21 Nordeste 0 1018.2 -0.3 70
2017-11-11 11:00:00 23 13 Nordeste 18 Nordeste 0 1018.5 0.8 71
2017-11-11 10:00:00 22.6 15 Nordeste 26 Nordeste 0 1018.6 1.5 72
2017-11-11 09:00:00 21.6 21 Nordeste 30 Nordeste 0 1018.5 2 76
2017-11-11 08:00:00 20.8 22 Nordeste 30 Nordeste 0 1017.7 1.4 80
2017-11-11 07:00:00 20.4 21 Nordeste 28 Nordeste 0 1017.1 0.9 81
2017-11-11 06:00:00 20.6 24 Nordeste 32 Nordeste 0 1016.5 0.2 80
2017-11-11 05:00:00 20.6 23 Nordeste 35 Norte 0 1016.3 -0.3 80
2017-11-11 04:00:00 20.8 26 Nordeste 35 Nordeste 0 1016.2 -0.5 78
2017-11-11 03:00:00 20.9 26 Nordeste 35 Nordeste 0 1016.3 -0.7 78
2017-11-11 02:00:00 21 26 Nordeste 35 Nordeste 0 1016.6 -0.8 76
2017-11-11 01:00:00 21 27 Nordeste 35 Nordeste 0 1016.7 -0.7 76
2017-11-11 00:00:00 20.9 27 Nordeste 37 Nordeste 0 1017 -0.2 77
2017-11-10 23:00:00 20.9 29 Nordeste 39 Nordeste 0 1017.4 0.5 76
2017-11-10 22:00:00 20.9 27 Nordeste 41 Nordeste 0 1017.4 0.9 76
2017-11-10 21:00:00 21 30 Nordeste 41 Nordeste 0 1017.2 1.3 75
2017-11-10 20:00:00 21.2 33 Nordeste 42 Nordeste 0 1016.9 1.2 74
2017-11-10 19:00:00 21.4 32 Nordeste 42 Nordeste 0 1016.5 1.2 73
2017-11-10 18:00:00 21.8 31 Nordeste 41 Nordeste 0 1015.9 0.8 70
2017-11-10 17:00:00 22.9 33 Nordeste 41 Nordeste 0 1015.7 0.1 64
2017-11-10 16:00:00 23.7 31 Nordeste 41 Nordeste 0 1015.3 -0.7 61
2017-11-10 15:00:00 24.1 32 Nordeste 39 Nordeste 0 1015.1 -1.7 59
2017-11-10 14:00:00 24.4 27 Nordeste 37 Nordeste 0 1015.6 -1.5 59
2017-11-10 13:00:00 24.5 28 Nordeste 37 Nordeste 0 1016 -1.2 58
2017-11-10 12:00:00 24 31 Nordeste 42 Nordeste 0 1016.8 0.6 60
2017-11-10 11:00:00 23.7 31 Nordeste 42 Nordeste 0 1017.1 1.2 63
2017-11-10 10:00:00 22.7 32 Nordeste 42 Nordeste 0 1017.2 1.8 68
2017-11-10 09:00:00 21.9 35 Nordeste 46 Nordeste 0 1016.2 1.1 73
2017-11-10 08:00:00 21 33 Nordeste 45 Nordeste 0 1015.9 1.1 79
2017-11-10 07:00:00 20.9 32 Nordeste 42 Norte 0 1015.4 0.6 81
2017-11-10 06:00:00 21.1 30 Nordeste 41 Nordeste 0 1015.1 0.5 80
2017-11-10 05:00:00 21.2 29 Nordeste 37 Nordeste 0 1014.8 0.2 81
2017-11-10 04:00:00 21.2 24 Nordeste 37 Nordeste 0 1014.8 -0.2 80
2017-11-10 03:00:00 21.3 28 Nordeste 37 Nordeste 0 1014.6 -0.7 80
2017-11-10 02:00:00 21.4 29 Nordeste 37 Nordeste 0 1014.6 -0.9 78
2017-11-10 01:00:00 21.5 28 Nordeste 37 Nordeste 0 1015 -0.5 80
2017-11-10 00:00:00 21.6 29 Nordeste 37 Nordeste 0 1015.3 0.3 81
2017-11-09 23:00:00 21.6 31 Nordeste 39 Nordeste 0 1015.5 0.7 80
2017-11-09 22:00:00 21.9 27 Nordeste 35 Nordeste 0 1015.5 1.4 79
2017-11-09 21:00:00 21.9 24 Nordeste 32 Nordeste 0 1015 1.5 81
2017-11-09 20:00:00 22 26 Nordeste 33 Nordeste 0 1014.8 1.9 80
2017-11-09 19:00:00 22.3 24 Nordeste 33 Nordeste 0 1014.1 1.3 80
2017-11-09 18:00:00 22.6 24 Nordeste 35 Nordeste 0 1013.5 0.8 79
2017-11-09 17:00:00 23.5 26 Nordeste 33 Nordeste 0 1012.9 -0.1 75
2017-11-09 16:00:00 24.2 24 Nordeste 30 Nordeste 0 1012.8 -0.6 73
2017-11-09 15:00:00 24.5 22 Nordeste 28 Nordeste 0 1012.7 -1 74
2017-11-09 14:00:00 24.5 23 Nordeste 30 Nordeste 0 1013 -1.1 74
2017-11-09 13:00:00 24.7 23 Nordeste 30 Nordeste 0 1013.4 -0.5 77
2017-11-09 12:00:00 24.5 23 Nordeste 32 Nordeste 0 1013.7 0.2 79
2017-11-09 11:00:00 24.5 25 Nordeste 30 Nordeste 0 1014.1 1.4 80
2017-11-09 10:00:00 24.3 21 Nordeste 30 Nordeste 0 1013.9 2.2 82
2017-11-09 09:00:00 23.2 18 Nordeste 26 Nordeste 0 1013.5 2.3 86
2017-11-09 08:00:00 22.1 13 Norte 18 Norte 0 1012.7 1.8 89
2017-11-09 07:00:00 21.2 12 Norte 17 Norte 0 1011.7 0.9 90
2017-11-09 06:00:00 20.9 13 Norte 18 Norte 0 1011.2 0.2 89
2017-11-09 05:00:00 20.9 14 Norte 18 Norte 0 1010.9 -0.1 89
2017-11-09 04:00:00 20.9 14 Norte 18 Norte 0 1010.8 -0.6 88
2017-11-09 03:00:00 21 13 Norte 17 Norte 0 1011 -0.7 88
2017-11-09 02:00:00 21.1 13 Norte 22 Norte 0 1011 -0.6 87
2017-11-09 01:00:00 21.8 14 Norte 21 Nordeste 0 1011.4 0 86
2017-11-09 00:00:00 22.3 16 Nordeste 24 Nordeste 0 1011.7 0.7 85
2017-11-08 23:00:00 22.3 18 Nordeste 26 Nordeste 0 1011.6 1.1 84
2017-11-08 22:00:00 22.3 21 Norte 30 Nordeste 0 1011.4 1.2 83
2017-11-08 21:00:00 22.3 21 Norte 30 Nordeste 0 1011 1.1 82
2017-11-08 20:00:00 22.6 19 Nordeste 28 Nordeste 0 1010.5 0.9 81
2017-11-08 19:00:00 22.8 18 Nordeste 24 Norte 0 1010.2 0.9 81
2017-11-08 18:00:00 23.4 17 Nordeste 22 Norte 0 1009.9 0.4 79
2017-11-08 17:00:00 24.1 17 Nordeste 28 Nordeste 0 1009.6 0 75
2017-11-08 16:00:00 24.8 20 Nordeste 32 Nordeste 0 1009.3 -1.1 74
2017-11-08 15:00:00 25.2 23 Nordeste 32 Nordeste 0 1009.5 -1.4 73
2017-11-08 14:00:00 25.5 23 Nordeste 33 Nordeste 0 1009.6 -1.6 72
2017-11-08 13:00:00 25.5 22 Nordeste 37 Nordeste 0 1010.4 -0.7 72
2017-11-08 12:00:00 25.2 27 Nordeste 39 Nordeste 0 1010.9 0.1 71
2017-11-08 11:00:00 24.8 28 Nordeste 37 Nordeste 0 1011.2 0.9 74
2017-11-08 10:00:00 24.3 25 Nordeste 35 Nordeste 0 1011.1 1.8 77
2017-11-08 09:00:00 23.3 29 Nordeste 41 Nordeste 0 1010.8 2.1 81
2017-11-08 08:00:00 22.4 32 Nordeste 42 Nordeste 0 1010.3 1.9 85
2017-11-08 07:00:00 22.4 25 Nordeste 37 Nordeste 0 1009.3 0.9 85
2017-11-08 06:00:00 22.2 23 Nordeste 32 Nordeste 0 1008.7 0.2 86
2017-11-08 05:00:00 22.1 17 Norte 32 Nordeste 0 1008.4 -0.4 86
2017-11-08 04:00:00 22.6 19 Norte 35 Norte 0 1008.4 -0.4 82
2017-11-08 03:00:00 22.7 18 Norte 30 Norte 0 1008.5 0.1 83
2017-11-08 02:00:00 23.2 6 Norte 33 Nordeste 0 1008.8 0 79
2017-11-08 01:00:00 23.2 17 Norte 35 Nordeste 0 1008.8 -0.7 79
2017-11-08 00:00:00 23 11 Noroeste 32 Norte 0 1008.4 -0.9 74
2017-11-07 23:00:00 22.6 17 Norte 30 Norte 0 1008.8 0.2 83
2017-11-07 22:00:00 22.3 19 Nordeste 42 Norte 0 1009.5 1.4 85
2017-11-07 21:00:00 22.3 19 Norte 35 Norte 0 1009.3 1.8 84
2017-11-07 20:00:00 22.4 24 Norte 32 Norte 0 1008.6 1 83
2017-11-07 19:00:00 22.4 24 Nordeste 35 Nordeste 0 1008.1 0.5 83
2017-11-07 18:00:00 22.6 25 Nordeste 35 Nordeste 0 1007.5 0.3 83
2017-11-07 17:00:00 23.1 27 Nordeste 35 Nordeste 0 1007.6 -0.5 81
2017-11-07 16:00:00 23.9 31 Nordeste 45 Norte 0 1007.6 -0.8 78
2017-11-07 15:00:00 23.8 35 Norte 46 Norte 0 1007.2 -2.3 77
2017-11-07 14:00:00 23.6 31 Nordeste 46 Nordeste 0 1008.1 -2.2 77
2017-11-07 13:00:00 23.7 39 Nordeste 50 Nordeste 0 1008.4 -2 76
2017-11-07 12:00:00 24.3 34 Nordeste 42 Nordeste 0 1009.5 -0.7 72
2017-11-07 11:00:00 23.9 34 Nordeste 41 Nordeste 0 1010.3 0.4 74
2017-11-07 10:00:00 23.3 29 Nordeste 41 Nordeste 0 1010.4 0.8 76
2017-11-07 09:00:00 22.5 31 Nordeste 39 Nordeste 0 1010.2 0.9 78
2017-11-07 08:00:00 21.3 22 Norte 35 Norte 0 1009.9 0.8 82
2017-11-07 07:00:00 21.5 29 Norte 37 Norte 0 1009.6 0.3 80
2017-11-07 06:00:00 21.7 26 Nordeste 37 Nordeste 0 1009.3 0 80
2017-11-07 05:00:00 21.7 30 Nordeste 37 Nordeste 0 1009.1 -0.3 80
2017-11-07 04:00:00 21.5 28 Norte 35 Norte 0 1009.3 -0.7 81
2017-11-07 03:00:00 21.1 26 Norte 37 Norte 0 1009.3 -1.2 82
2017-11-07 02:00:00 21.1 24 Norte 35 Norte 0 1009.4 -1.4 81
2017-11-07 01:00:00 21.2 28 Norte 35 Norte 0 1010 -0.9 80
2017-11-07 00:00:00 21.3 27 Nordeste 33 Norte 0 1010.5 -0.2 80
2017-11-06 23:00:00 21.3 22 Nordeste 32 Norte 0 1010.8 0.5 78
2017-11-06 22:00:00 21.3 17 Norte 24 Norte 0 1010.9 0.7 75
2017-11-06 21:00:00 21.4 18 Norte 28 Norte 0 1010.7 0.7 73
2017-11-06 20:00:00 21.7 23 Norte 39 Nordeste 0 1010.3 0.4 72
2017-11-06 19:00:00 22 31 Nordeste 39 Nordeste 0 1010.2 -0.1 77
2017-11-06 18:00:00 22.5 29 Nordeste 37 Nordeste 0 1010 -0.5 75
2017-11-06 17:00:00 23.6 27 Nordeste 35 Nordeste 0 1009.9 -1 71
2017-11-06 16:00:00 24.3 25 Nordeste 35 Nordeste 0 1010.3 -1.1 67
2017-11-06 15:00:00 24.7 26 Nordeste 33 Nordeste 0 1010.5 -1.9 65
2017-11-06 14:00:00 24.6 23 Nordeste 32 Nordeste 0 1010.9 -2.1 65
2017-11-06 13:00:00 25 25 Nordeste 35 Nordeste 0 1011.4 -1.8 65
2017-11-06 12:00:00 25 27 Nordeste 35 Nordeste 0 1012.4 -0.8 63
2017-11-06 11:00:00 24.5 29 Nordeste 41 Norte 0 1013 0 61
2017-11-06 10:00:00 23.7 30 Norte 41 Norte 0 1013.2 0.5 65
2017-11-06 09:00:00 22.4 32 Norte 42 Norte 0 1013.2 0.8 70
2017-11-06 08:00:00 21.1 25 Norte 41 Nordeste 0 1013 0.6 75
2017-11-06 07:00:00 21 33 Norte 46 Nordeste 0 1012.7 0.1 75
2017-11-06 06:00:00 21.2 32 Norte 46 Norte 0 1012.4 -0.5 76
2017-11-06 05:00:00 21.5 38 Norte 48 Nordeste 0 1012.4 -1.1 77
2017-11-06 04:00:00 21.6 36 Nordeste 45 Nordeste 0 1012.6 -1.3 76
2017-11-06 03:00:00 21.7 35 Nordeste 48 Nordeste 0 1012.9 -1.5 75
2017-11-06 02:00:00 21.7 39 Nordeste 50 Nordeste 0 1013.5 -1.3 74
2017-11-06 01:00:00 21.8 38 Nordeste 48 Norte 0 1013.9 -1.1 74
2017-11-06 00:00:00 22 38 Nordeste 50 Norte 0 1014.4 -0.2 73
2017-11-05 23:00:00 22 36 Norte 46 Norte 0 1014.8 0.4 72
2017-11-05 22:00:00 21.8 37 Norte 48 Norte 0 1015 1 70
2017-11-05 21:00:00 21.9 37 Norte 50 Norte 0 1014.6 1.1 74
2017-11-05 20:00:00 22 35 Nordeste 48 Nordeste 0 1014.4 0.6 74
2017-11-05 19:00:00 22.2 39 Nordeste 50 Nordeste 0 1014 0.2 74
2017-11-05 18:00:00 22.5 41 Nordeste 52 Nordeste 0 1013.5 -0.6 73
2017-11-05 17:00:00 23.6 36 Nordeste 46 Nordeste 0 1013.8 -0.7 68
2017-11-05 16:00:00 24.4 33 Nordeste 42 Nordeste 0 1013.8 -1.5 67
2017-11-05 15:00:00 24.7 32 Nordeste 42 Nordeste 0 1014.1 -2 67
2017-11-05 14:00:00 24.8 33 Nordeste 45 Nordeste 0 1014.5 -2.1 63
2017-11-05 13:00:00 25.4 32 Nordeste 42 Nordeste 0 1015.3 -1.3 62
2017-11-05 12:00:00 25 32 Nordeste 42 Nordeste 0 1016.1 -0.1 62
2017-11-05 11:00:00 24.8 33 Nordeste 42 Norte 0 1016.6 0.8 61
2017-11-05 10:00:00 24.2 32 Nordeste 42 Nordeste 0 1016.6 1.2 65
2017-11-05 09:00:00 23.2 33 Nordeste 45 Nordeste 0 1016.2 1.1 68
2017-11-05 08:00:00 22 31 Nordeste 42 Nordeste 0 1015.8 0.8 74
2017-11-05 07:00:00 20.9 24 Norte 41 Norte 0 1015.4 0.3 76
2017-11-05 06:00:00 20.6 24 Norte 32 Norte 0 1015.1 -0.1 76
2017-11-05 05:00:00 20.8 23 Norte 42 Norte 0 1015 -0.4 76
2017-11-05 04:00:00 21.2 26 Norte 39 Norte 0 1015.1 -0.7 77
2017-11-05 03:00:00 21.5 30 Norte 42 Norte 0 1015.2 -1 76
2017-11-05 02:00:00 21.7 30 Norte 45 Nordeste 0 1015.4 -1 76
2017-11-05 01:00:00 21.9 34 Nordeste 42 Nordeste 0 1015.8 -0.4 75
2017-11-05 00:00:00 21.7 27 Nordeste 39 Norte 0 1016.2 0.4 75
2017-11-04 23:00:00 21.6 27 Norte 37 Nordeste 0 1016.4 1.1 74
2017-11-04 22:00:00 21.6 27 Nordeste 39 Norte 0 1016.2 1.3 74
2017-11-04 21:00:00 21.6 32 Nordeste 39 Nordeste 0 1015.8 1.4 68
2017-11-04 20:00:00 22 30 Nordeste 42 Nordeste 0 1015.3 0.7 72
2017-11-04 19:00:00 22.2 31 Nordeste 39 Nordeste 0 1014.9 0.7 71
2017-11-04 18:00:00 22.6 32 Nordeste 39 Nordeste 0 1014.4 0.2 70
2017-11-04 17:00:00 23.5 27 Nordeste 33 Nordeste 0 1014.6 0.2 66
2017-11-04 16:00:00 24.4 24 Nordeste 33 Nordeste 0 1014.2 -0.8 68
2017-11-04 15:00:00 25 25 Nordeste 33 Nordeste 0 1014.2 -1.4 61
2017-11-04 14:00:00 25.1 23 Nordeste 33 Nordeste 0 1014.4 -1.7 63
2017-11-04 13:00:00 25.1 27 Nordeste 35 Nordeste 0 1015 -1 61
2017-11-04 12:00:00 24.9 24 Nordeste 32 Nordeste 0 1015.6 0.3 63
2017-11-04 11:00:00 24.2 24 Nordeste 33 Nordeste 0 1016.1 1.6 67
2017-11-04 10:00:00 23.8 25 Nordeste 35 Norte 0 1016 2.2 67
2017-11-04 09:00:00 22.9 24 Norte 32 Norte 0 1015.3 1.9 72
2017-11-04 08:00:00 20.4 15 Norte 24 Norte 0 1014.5 1.3 80
2017-11-04 07:00:00 19.8 14 Norte 21 Norte 0 1013.8 0.8 81
2017-11-04 06:00:00 19.8 14 Norte 21 Norte 0 1013.4 0.2 82
2017-11-04 05:00:00 20.2 15 Norte 18 Norte 0 1013.2 -0.3 82
2017-11-04 04:00:00 20.4 13 Norte 18 Norte 0 1013 -0.9 81
2017-11-04 03:00:00 20.7 14 Norte 18 Norte 0 1013.2 -1.2 80
2017-11-04 02:00:00 20.6 12 Noroeste 15 Norte 0 1013.5 -0.9 78
2017-11-04 01:00:00 20.9 12 Noroeste 15 Noroeste 0 1013.9 -0.5 76
2017-11-04 00:00:00 21 11 Noroeste 15 Noroeste 0 1014.4 0.2 75
2017-11-03 23:00:00 21.5 9 Norte 18 Norte 0 1014.4 0.7 75
2017-11-03 22:00:00 21.9 11 Norte 21 Noroeste 0 1014.4 1.1 74
2017-11-03 21:00:00 22.3 12 Norte 24 Norte 0 1014.2 1.6 71
2017-11-03 20:00:00 22.7 15 Norte 26 Noroeste 0 1013.7 1.1 68
2017-11-03 19:00:00 23.4 8 Oeste 33 Oeste 0 1013.3 0.9 66
2017-11-03 18:00:00 24 11 Nordeste 26 Nordeste 0 1012.6 0 64
2017-11-03 17:00:00 24.3 12 Este 18 Nordeste 0 1012.6 -0.1 66
2017-11-03 16:00:00 24.7 14 Nordeste 22 Nordeste 0 1012.4 -1 61
2017-11-03 15:00:00 24.6 13 Nordeste 21 Este 0 1012.6 -1.5 60
2017-11-03 14:00:00 24.6 14 Nordeste 21 Este 0 1012.7 -1.8 60
2017-11-03 13:00:00 24.4 12 Este 18 Este 0 1013.4 -1.1 60
2017-11-03 12:00:00 24.2 13 Este 18 Este 0 1014.1 0.2 61
2017-11-03 11:00:00 23.9 10 Este 17 Este 0 1014.5 1.3 63
2017-11-03 10:00:00 23.2 4 Nordeste 13 Nordeste 0 1014.5 1.9 66
2017-11-03 09:00:00 21.9 6 Norte 18 Norte 0 1013.9 1.3 71
2017-11-03 08:00:00 20.5 7 Noroeste 21 Noroeste 0 1013.2 0.6 74
2017-11-03 07:00:00 19.4 7 Noroeste 13 Noroeste 0 1012.6 -0.2 74
2017-11-03 06:00:00 19.3 8 Noroeste 13 Noroeste 0 1012.6 -0.3 74
2017-11-03 05:00:00 19.4 9 Oeste 13 Noroeste 0 1012.6 -0.7 74
2017-11-03 04:00:00 19.2 8 Oeste 13 Oeste 0 1012.8 -0.8 74
2017-11-03 03:00:00 18.8 12 Noroeste 13 Oeste 0 1012.9 -1.2 74
2017-11-03 02:00:00 18.9 9 Noroeste 13 Oeste 0 1013.3 -1 74
2017-11-03 01:00:00 19.4 11 Noroeste 13 Noroeste 0 1013.6 -0.8 73
2017-11-03 00:00:00 20.4 12 Noroeste 17 Norte 0 1014.1 -0.1 71
2017-11-02 23:00:00 20.5 11 Noroeste 17 Noroeste 0 1014.3 0.6 70
2017-11-02 22:00:00 21.1 12 Noroeste 24 Noroeste 0 1014.4 1.2 68
2017-11-02 21:00:00 21.5 12 Noroeste 21 Noroeste 0 1014.2 1.5 66
2017-11-02 20:00:00 22 14 Norte 24 Norte 0 1013.7 0.9 64
2017-11-02 19:00:00 22.7 9 Noroeste 32 Oeste 0 1013.2 0.4 66
2017-11-02 18:00:00 22.6 9 Este 17 Este 0 1012.7 -0.1 69
2017-11-02 17:00:00 23.4 9 Nordeste 18 Nordeste 0 1012.8 -0.4 65
2017-11-02 16:00:00 23.9 12 Nordeste 21 Nordeste 0 1012.8 -1 62
2017-11-02 15:00:00 24.1 13 Nordeste 21 Nordeste 0 1012.8 -1.9 61
2017-11-02 14:00:00 24.1 12 Nordeste 18 Nordeste 0 1013.2 -2.2 59
2017-11-02 13:00:00 23.7 13 Nordeste 22 Nordeste 0 1013.8 -1.5 60
2017-11-02 12:00:00 23.8 14 Nordeste 21 Nordeste 0 1014.7 -0.5 59
2017-11-02 11:00:00 23.3 14 Nordeste 22 Nordeste 0 1015.4 0.7 61
2017-11-02 10:00:00 22.9 16 Nordeste 22 Norte 0 1015.3 0.8 63
2017-11-02 09:00:00 21.4 17 Norte 30 Noroeste 0 1015.2 0.8 67
2017-11-02 08:00:00 19.6 13 Noroeste 24 Noroeste 0 1014.7 0.5 72
2017-11-02 07:00:00 19.7 13 Noroeste 18 Noroeste 0 1014.5 0.2 74
2017-11-02 06:00:00 20.3 15 Norte 21 Norte 0 1014.4 0.2 74
2017-11-02 05:00:00 19.9 9 Noroeste 13 Noroeste 0 1014.2 -0.3 75
2017-11-02 04:00:00 19.8 12 Noroeste 17 Noroeste 0 1014.3 -0.6 77
2017-11-02 03:00:00 19.3 14 Noroeste 24 Noroeste 0 1014.2 -1.2 77
2017-11-02 02:00:00 19.7 14 Noroeste 18 Noroeste 0 1014.5 -1.3 76
2017-11-02 01:00:00 19.9 14 Noroeste 18 Noroeste 0 1014.9 -0.8 76
2017-11-02 00:00:00 20.4 14 Noroeste 18 Noroeste 0 1015.4 0 74
2017-11-01 23:00:00 20.9 14 Norte 32 Norte 0 1015.8 0.8 73
2017-11-01 22:00:00 21.6 25 Norte 33 Norte 0 1015.7 1.3 74
2017-11-01 21:00:00 21.8 21 Nordeste 28 Nordeste 0 1015.4 1.4 75
2017-11-01 20:00:00 21.7 18 Nordeste 26 Nordeste 0 1015 1 76
2017-11-01 19:00:00 22 18 Nordeste 26 Nordeste 0 1014.4 0.4 75
2017-11-01 18:00:00 22.6 19 Nordeste 28 Nordeste 0 1014 0 72
2017-11-01 17:00:00 23.5 19 Nordeste 26 Nordeste 0 1014 -0.1 68
2017-11-01 16:00:00 24.1 15 Nordeste 21 Nordeste 0 1014 -0.9 65
2017-11-01 15:00:00 24.4 15 Nordeste 21 Nordeste 0 1014 -2 64
2017-11-01 14:00:00 24.6 15 Nordeste 22 Nordeste 0 1014.1 -2.6 62
2017-11-01 13:00:00 24.2 16 Nordeste 26 Nordeste 0 1014.9 -1.8 63
2017-11-01 12:00:00 24.4 19 Nordeste 26 Nordeste 0 1016 -0.4 62
2017-11-01 11:00:00 23.9 16 Nordeste 28 Nordeste 0 1016.7 1.2 64
2017-11-01 10:00:00 23.3 20 Nordeste 30 Norte 0 1016.7 2 67
2017-11-01 09:00:00 22.2 21 Norte 30 Norte 0 1016.4 2.6 72
2017-11-01 08:00:00 21.3 21 Norte 28 Norte 0 1015.5 2 77
2017-11-01 07:00:00 21.3 21 Nordeste 30 Nordeste 0 1014.7 1.2 75
2017-11-01 06:00:00 21 20 Nordeste 26 Norte 0 1013.8 0.1 77
2017-11-01 05:00:00 21.1 19 Nordeste 28 Nordeste 0 1013.5 -0.5 76
2017-11-01 04:00:00 21.3 20 Norte 26 Nordeste 0 1013.5 -0.6 75
2017-11-01 03:00:00 21.6 17 Nordeste 26 Nordeste 0 1013.7 -0.8 77
2017-11-01 02:00:00 21.6 16 Nordeste 22 Nordeste 0 1014 -0.9 78
2017-11-01 01:00:00 21.5 17 Nordeste 24 Nordeste 0 1014.1 -0.7 78
2017-11-01 00:00:00 21.5 18 Nordeste 26 Nordeste 0 1014.5 0 77
2017-10-31 23:00:00 21.9 18 Nordeste 28 Nordeste 0 1014.9 1.1 77
2017-10-31 22:00:00 22.2 19 Nordeste 26 Nordeste 0 1014.8 1.7 77
2017-10-31 21:00:00 22.2 21 Nordeste 28 Nordeste 0 1014.5 1.6 78
2017-10-31 20:00:00 22.2 18 Nordeste 24 Nordeste 0 1013.8 1.3 79
2017-10-31 19:00:00 22.3 17 Nordeste 22 Nordeste 0 1013.1 0.6 78
2017-10-31 18:00:00 22.9 14 Nordeste 22 Nordeste 0 1012.9 0.6 74
2017-10-31 17:00:00 23.8 16 Nordeste 24 Nordeste 0 1012.5 -0.2 71
2017-10-31 16:00:00 24.3 17 Nordeste 22 Nordeste 0 1012.5 -0.8 69
2017-10-31 15:00:00 24.5 17 Nordeste 26 Nordeste 0 1012.3 -1.8 68
2017-10-31 14:00:00 24.7 14 Nordeste 21 Nordeste 0 1012.7 -1.7 66
2017-10-31 13:00:00 24.6 14 Nordeste 22 Nordeste 0 1013.3 -1.2 66
2017-10-31 12:00:00 24.4 13 Nordeste 22 Nordeste 0 1014.1 0.3 65
2017-10-31 11:00:00 24.2 16 Nordeste 22 Nordeste 0 1014.4 1.2 66
2017-10-31 10:00:00 23.5 14 Nordeste 24 Nordeste 0 1014.5 2 68
2017-10-31 09:00:00 22.9 15 Nordeste 24 Nordeste 0 1013.8 2 71
2017-10-31 08:00:00 21.6 15 Nordeste 22 Nordeste 0 1013.2 1.7 76
2017-10-31 07:00:00 21.1 14 Nordeste 26 Nordeste 0 1012.5 1.1 78
2017-10-31 06:00:00 21.1 16 Nordeste 22 Nordeste 0 1011.8 0.3 80
2017-10-31 05:00:00 20.9 13 Norte 26 Nordeste 0 1011.5 -0.2 80
2017-10-31 04:00:00 21.1 19 Norte 26 Norte 0 1011.4 -0.5 80
2017-10-31 03:00:00 21.4 17 Norte 28 Nordeste 0 1011.5 -0.8 81
2017-10-31 02:00:00 21.6 16 Norte 26 Norte 0 1011.7 -1 80
2017-10-31 01:00:00 21.8 14 Norte 22 Norte 0 1011.9 -0.7 81
2017-10-31 00:00:00 21.8 15 Nordeste 22 Nordeste 0 1012.3 -0.2 82
2017-10-30 23:00:00 22.1 15 Nordeste 24 Nordeste 0 1012.7 0.8 82
2017-10-30 22:00:00 22.3 14 Nordeste 22 Norte 0 1012.6 1 83
2017-10-30 21:00:00 22.3 16 Nordeste 22 Norte 0 1012.5 1 84
2017-10-30 20:00:00 22.3 17 Nordeste 24 Norte 0 1011.9 0.5 84
2017-10-30 19:00:00 22.7 18 Nordeste 24 Nordeste 0 1011.6 0.3 82
2017-10-30 18:00:00 23.3 18 Nordeste 24 Nordeste 0 1011.5 0.3 79
2017-10-30 17:00:00 24.1 17 Nordeste 24 Nordeste 0 1011.4 -0.1 75
2017-10-30 16:00:00 24.6 17 Nordeste 22 Nordeste 0 1011.3 -0.9 72
2017-10-30 15:00:00 24.6 15 Nordeste 22 Nordeste 0 1011.2 -1.7 72
2017-10-30 14:00:00 24.6 14 Nordeste 21 Nordeste 0 1011.5 -1.9 71
2017-10-30 13:00:00 24.3 13 Nordeste 22 Nordeste 0 1012.2 -1.3 72
2017-10-30 12:00:00 24.2 17 Nordeste 24 Nordeste 0 1012.9 -0.2 72
2017-10-30 11:00:00 24 18 Nordeste 26 Nordeste 0 1013.4 0.5 73
2017-10-30 10:00:00 23.3 17 Nordeste 22 Nordeste 0 1013.5 1 75
2017-10-30 09:00:00 22.4 15 Nordeste 21 Norte 0 1013.1 0.9 77
2017-10-30 08:00:00 21.1 13 Nordeste 21 Norte 0 1012.9 0.9 81
2017-10-30 07:00:00 20.8 13 Norte 22 Nordeste 0 1012.5 0.4 83
2017-10-30 06:00:00 20.7 14 Norte 21 Norte 0 1012.2 -0.2 83
2017-10-30 05:00:00 20.7 12 Norte 18 Noroeste 0 1012 -0.8 83
2017-10-30 04:00:00 20.8 15 Norte 28 Nordeste 0 1012.1 -1.2 83
2017-10-30 03:00:00 21.3 19 Nordeste 28 Norte 0 1012.4 -1.3 83
2017-10-30 02:00:00 21.1 16 Norte 22 Norte 0 1012.8 -1.4 85
2017-10-30 01:00:00 20.7 12 Norte 21 Noroeste 0 1013.3 -0.9 84
2017-10-30 00:00:00 21.3 7 Norte 13 Norte 0 1013.7 -0.6 84
2017-10-29 23:00:00 20.8 6 Noroeste 13 Nordeste 0 1014.2 0.1 84
2017-10-29 22:00:00 21.6 6 Norte 18 Norte 0 1014.2 0.5 85
2017-10-29 21:00:00 22.1 14 Norte 24 Norte 0 1014.3 0.8 85
2017-10-29 20:00:00 22.1 19 Norte 26 Nordeste 0 1014.1 0.5 85
2017-10-29 19:00:00 22.5 22 Nordeste 28 Nordeste 0 1013.7 0.2 84
2017-10-29 18:00:00 23.3 21 Nordeste 26 Nordeste 0 1013.5 -0.3 81
2017-10-29 17:00:00 23.9 15 Nordeste 22 Nordeste 0 1013.6 -0.5 77
2017-10-29 16:00:00 24.6 17 Nordeste 26 Nordeste 0 1013.5 -1.3 74
2017-10-29 15:00:00 24.6 17 Nordeste 24 Nordeste 0 1013.8 -1.5 73
2017-10-29 14:00:00 24.8 16 Nordeste 22 Nordeste 0 1014.1 -1.4 71
2017-10-29 13:00:00 24.4 15 Nordeste 21 Nordeste 0 1014.8 -1 73
2017-10-29 12:00:00 24.3 15 Nordeste 22 Nordeste 0 1015.3 -0.1 73
2017-10-29 11:00:00 23.9 15 Nordeste 22 Nordeste 0 1015.5 0.5 74
2017-10-29 10:00:00 23.4 15 Nordeste 21 Nordeste 0 1015.8 1.1 76
2017-10-29 09:00:00 22.5 17 Nordeste 22 Nordeste 0 1015.4 1.1 79
2017-10-29 08:00:00 21.4 13 Norte 22 Norte 0 1015 0.8 84
2017-10-29 07:00:00 20.6 12 Norte 24 Norte 0 1014.7 0.3 84
2017-10-29 06:00:00 21.2 17 Nordeste 24 Nordeste 0 1014.3 -0.3 84
2017-10-29 05:00:00 21.4 16 Nordeste 24 Nordeste 0 1014.2 -0.6 84
2017-10-29 04:00:00 21.5 17 Nordeste 24 Nordeste 0 1014.4 -0.8 84
2017-10-29 03:00:00 21.5 17 Nordeste 24 Nordeste 0 1014.6 -0.9 86
2017-10-29 02:00:00 21.6 17 Nordeste 22 Nordeste 0 1014.8 -0.9 87
2017-10-29 01:00:00 22 16 Nordeste 22 Nordeste 0 1015.2 -0.5 89
2017-10-29 00:00:00 22 11 Norte 18 Norte 0 1015.7 0.7 89
2017-10-28 23:00:00 22.3 14 Norte 18 Norte 0 1015.7 0.9 89
2017-10-28 22:00:00 22.5 14 Norte 18 Norte 0 1015.6 1 88
2017-10-28 21:00:00 23 15 Norte 22 Nordeste 0 1015 0.4 87
2017-10-28 20:00:00 23.3 15 Norte 26 Norte 0 1014.8 0.3 84
2017-10-28 19:00:00 23.9 22 Norte 28 Nordeste 0 1014.6 -0.1 81
2017-10-28 18:00:00 24.7 18 Nordeste 22 Nordeste 0 1014.6 -0.4 76
2017-10-28 17:00:00 25.6 17 Nordeste 22 Nordeste 0 1014.5 -1.3 70
2017-10-28 16:00:00 26.3 13 Norte 21 Norte 0 1014.7 -1.9 61
2017-10-28 15:00:00 26.5 9 Nordeste 18 Norte 0 1015 -2.1 61
2017-10-28 14:00:00 26.3 12 Nordeste 21 Nordeste 0 1015.8 -1.5 60
2017-10-28 13:00:00 26.2 13 Nordeste 21 Nordeste 0 1016.6 -0.5 60
2017-10-28 12:00:00 25.7 8 Nordeste 17 Norte 0 1017.1 0.2 57
2017-10-28 11:00:00 25.1 7 Nordeste 22 Noroeste 0 1017.3 0.7 61
2017-10-28 10:00:00 23.6 9 Norte 21 Oeste 0 1017.1 0.8 72
2017-10-28 09:00:00 22.3 11 Noroeste 21 Norte 0 1016.9 0.7 75
2017-10-28 08:00:00 21.6 13 Norte 24 Noroeste 0 1016.6 0.6 76
2017-10-28 07:00:00 21.4 13 Noroeste 17 Noroeste 0 1016.3 0.3 78
2017-10-28 06:00:00 21.8 13 Noroeste 17 Norte 0 1016.2 -0.1 76
2017-10-28 05:00:00 21.8 13 Noroeste 18 Norte 0 1016 -0.8 71
2017-10-28 04:00:00 22.1 9 Noroeste 22 Norte 0 1016 -1.3 63
2017-10-28 03:00:00 22.9 15 Noroeste 21 Norte 0 1016.3 -1.3 60
2017-10-28 02:00:00 23.4 13 Norte 22 Norte 0 1016.8 -0.7 58
2017-10-28 01:00:00 23 15 Norte 21 Norte 0 1017.3 0.1 62
2017-10-28 00:00:00 23.4 13 Norte 24 Norte 0 1017.6 0.8 69
2017-10-27 23:00:00 23.7 18 Norte 24 Norte 0 1017.5 1.1 69
2017-10-27 22:00:00 24.3 17 Norte 22 Norte 0 1017.2 0.8 56
2017-10-27 21:00:00 24.9 16 Norte 24 Norte 0 1016.8 0.5 48
2017-10-27 20:00:00 25.5 18 Norte 26 Norte 0 1016.4 0.2 44
2017-10-27 19:00:00 26 19 Norte 30 Nordeste 0 1016.4 0.2 45
2017-10-27 18:00:00 26.6 18 Norte 28 Norte 0 1016.3 -0.3 46
2017-10-27 17:00:00 26.9 16 Norte 24 Norte 0 1016.2 -1 46
2017-10-27 16:00:00 27.4 13 Nordeste 22 Nordeste 0 1016.2 -1.6 41
2017-10-27 15:00:00 27.3 8 Norte 21 Este 0 1016.6 -1.8 41
2017-10-27 14:00:00 27 14 Este 26 Este 0 1017.2 -1.2 46
2017-10-27 13:00:00 27.2 18 Este 28 Este 0 1017.8 -0.3 47
2017-10-27 12:00:00 26.9 17 Este 26 Este 0 1018.4 1.1 51
2017-10-27 11:00:00 26.5 17 Este 24 Este 0 1018.4 1.9 54
2017-10-27 10:00:00 25.3 13 Este 21 Este 0 1018.1 1.9 61
2017-10-27 09:00:00 24.6 10 Este 18 Este 0 1017.3 1.3 65
2017-10-27 08:00:00 23.6 14 Este 21 Este 0 1016.5 0.6 70
2017-10-27 07:00:00 23.7 16 Este 26 Este 0 1016.2 0.3 71
2017-10-27 06:00:00 23.8 17 Este 26 Este 0 1016 0.2 72
2017-10-27 05:00:00 23.8 20 Este 30 Este 0 1015.9 -0.1 76
2017-10-27 04:00:00 24.3 20 Este 32 Este 0 1015.9 -0.5 72
2017-10-27 03:00:00 24.7 23 Este 32 Este 0 1015.8 -0.6 62
2017-10-27 02:00:00 24.7 20 Este 26 Este 0 1016 -0.4 65
2017-10-27 01:00:00 24.8 14 Este 22 Este 0 1016.4 0.2 70
2017-10-27 00:00:00 25 18 Este 28 Este 0 1016.4 0.5 70
2017-10-26 23:00:00 25 9 Nordeste 18 Norte 0 1016.4 1 70
2017-10-26 22:00:00 25.6 12 Nordeste 22 Norte 0 1016.2 1.2 59
2017-10-26 21:00:00 26.1 15 Norte 21 Norte 0 1015.9 1.1 48
2017-10-26 20:00:00 26.4 15 Norte 21 Norte 0 1015.4 1 47
2017-10-26 19:00:00 27.3 14 Norte 18 Nordeste 0 1015 0.9 46
2017-10-26 18:00:00 27.5 13 Norte 21 Nordeste 0 1014.8 0.3 43
2017-10-26 17:00:00 27.4 16 Nordeste 21 Norte 0 1014.4 -0.8 55
2017-10-26 16:00:00 27.4 14 Nordeste 18 Nordeste 0 1014.1 -2 60
2017-10-26 15:00:00 28.7 5 Nordeste 13 Nordeste 0 1014.5 -2.1 44
2017-10-26 14:00:00 28.3 7 Este 15 Sudeste 0 1015.2 -1 48
2017-10-26 13:00:00 28.3 6 Sudeste 15 Sudeste 0 1016.1 0.4 45
2017-10-26 12:00:00 28.2 4 Sudeste 15 Sudeste 0 1016.6 1.5 44
2017-10-26 11:00:00 27 2 Nordeste 11 Nordeste 0 1016.2 1.8 58
2017-10-26 10:00:00 25.4 0 Calma 18 Norte 0 1015.7 1.6 58
2017-10-26 09:00:00 21.9 0 Calma 30 Noroeste 0 1015.1 1.5 60
2017-10-26 08:00:00 21 9 Noroeste 26 Oeste 0 1014.4 0.7 61
2017-10-26 07:00:00 20.1 14 Noroeste 17 Noroeste 0 1014.1 0.8 60
2017-10-26 06:00:00 20.6 6 Noroeste 15 Noroeste 0 1013.6 0.1 59
2017-10-26 05:00:00 21.1 8 Noroeste 13 Noroeste 0 1013.7 -0.3 57
2017-10-26 04:00:00 22.1 10 Noroeste 18 Noroeste 0 1013.3 -1 65
2017-10-26 03:00:00 22.2 14 Noroeste 17 Noroeste 0 1013.5 -1 65
2017-10-26 02:00:00 21.5 6 Noroeste 13 Noroeste 0 1014 -0.6 56
2017-10-26 01:00:00 22.6 6 Noroeste 13 Norte 0 1014.3 -0.2 61
2017-10-26 00:00:00 22.6 8 Noroeste -- -- 0 1014.5 0.2 45
2017-10-25 23:00:00 23.1 5 Noroeste 8 Noroeste 0 1014.6 0.9 44
2017-10-25 22:00:00 24.3 3 Norte 22 Oeste 0 1014.5 1.1 44
2017-10-25 21:00:00 24.7 6 Nordeste 13 Nordeste 0 1014.3 1.1 59
2017-10-25 20:00:00 25.7 5 Nordeste 15 Norte 0 1013.7 0.6 50
2017-10-25 19:00:00 26.9 7 Norte 15 Norte 0 1013.4 0.2 47
2017-10-25 18:00:00 27.2 7 Norte 18 Norte 0 1013.2 -0.4 48
2017-10-25 17:00:00 27.1 12 Norte 18 Nordeste 0 1013.1 -1.1 55
2017-10-25 16:00:00 28 10 Nordeste 18 Nordeste 0 1013.2 -2 47
2017-10-25 15:00:00 27.6 10 Norte 22 Nordeste 0 1013.6 -2.1 44
2017-10-25 14:00:00 26.4 4 Nordeste 15 Nordeste 0 1014.2 -1.1 51
2017-10-25 13:00:00 25.6 3 Nordeste 15 Nordeste 0 1015.2 0.4 65
2017-10-25 12:00:00 25 3 Sudeste 13 Este 0 1015.7 1.4 76
2017-10-25 11:00:00 23.4 0 Calma 15 Noroeste 0 1015.3 1.2 82
2017-10-25 10:00:00 22.9 4 Norte 18 Noroeste 0 1014.8 1 86
2017-10-25 09:00:00 22 7 Noroeste 22 Oeste 0 1014.3 0.6 89
2017-10-25 08:00:00 21.2 11 Noroeste 26 Oeste 0 1014.1 0.3 90
2017-10-25 07:00:00 21.4 11 Noroeste 17 Norte 0 1013.8 -0.2 90
2017-10-25 06:00:00 21.7 12 Noroeste 17 Norte 0 1013.7 -0.7 89
2017-10-25 05:00:00 21.9 10 Norte 18 Norte 0 1013.8 -1.1 89
2017-10-25 04:00:00 22.2 11 Norte 21 Norte 0 1014 -1.1 89
2017-10-25 03:00:00 22.6 15 Norte 22 Norte 0 1014.4 -0.9 89
2017-10-25 02:00:00 22.6 16 Norte 21 Norte 0 1014.9 -0.4 88
2017-10-25 01:00:00 22.7 14 Norte 18 Norte 0 1015.1 0.1 86
2017-10-25 00:00:00 22.8 13 Norte 17 Norte 0 1015.3 0.7 85